Mount Holly, New Jersey
Current Conditions -  °F | °C
As of 2:54 PM on Tuesday 21 Oct 2014 (Local Time) from KVAY Reporting Station
Clear Clear  
Wind Chill: 20°   Ceiling: Unl
Heat Index: 20°   Visibility: 9mi
Dew Point:   Wind: 5mph
Humidity: 49%   Direction: 260°W
Pressure: 29.8"   Gusts: NA
Location:  39.99°N, 74.79°W
Report Text: KVAY 211854Z AUTO 26004KT 9SM CLR 20/09 A2980 RMK AO2 LTG DSNT E SLP091 T02000089
Loading
Personal Weather Stations






























Interactive Weather Map
Tropical Storm Tracking
New forecast layout! Learn more

10-Day Weather Forecast

Advertisements
Track Severe Weather on mobile